createdAt,value
2017-11-26T00:00:58.017Z,2.33
2017-11-26T00:03:25.744Z,1.70
2017-11-26T00:05:53.540Z,0.63
2017-11-26T00:08:21.298Z,0.20
2017-11-26T00:10:49.058Z,0.30
2017-11-26T00:13:16.817Z,0.20
2017-11-26T00:15:44.664Z,0.30
2017-11-26T00:18:12.441Z,0.20
2017-11-26T00:20:40.181Z,0.23
2017-11-26T00:23:07.889Z,0.30
2017-11-26T00:25:35.648Z,0.27
2017-11-26T00:28:03.357Z,0.30
2017-11-26T00:30:31.043Z,0.20
2017-11-26T00:32:58.816Z,0.30
2017-11-26T00:35:27.061Z,0.27
2017-11-26T00:37:54.797Z,0.30
2017-11-26T00:40:22.561Z,0.20
2017-11-26T00:42:50.304Z,0.30
2017-11-26T00:45:18.130Z,0.20
2017-11-26T00:47:45.918Z,0.30
2017-11-26T00:50:13.602Z,0.20
2017-11-26T00:52:41.333Z,0.30
2017-11-26T00:55:09.090Z,0.20
2017-11-26T00:57:36.794Z,0.20
2017-11-26T01:00:04.553Z,0.20
2017-11-26T01:02:32.216Z,0.30
2017-11-26T01:05:00.026Z,0.20
2017-11-26T01:07:27.726Z,0.20
2017-11-26T01:09:55.514Z,0.20
2017-11-26T01:12:23.261Z,0.30
2017-11-26T01:14:50.950Z,0.20
2017-11-26T01:17:18.637Z,0.20
2017-11-26T01:19:46.379Z,0.20
2017-11-26T01:22:14.133Z,0.30
2017-11-26T01:24:41.837Z,0.20
2017-11-26T01:27:09.546Z,0.20
2017-11-26T01:29:37.274Z,0.20
2017-11-26T01:32:05.012Z,0.30
2017-11-26T01:34:32.739Z,0.20
2017-11-26T01:37:00.473Z,0.30
2017-11-26T01:39:28.543Z,0.40
2017-11-26T01:41:56.351Z,0.20
2017-11-26T01:44:24.050Z,0.20
2017-11-26T01:46:51.858Z,0.20
2017-11-26T01:49:19.624Z,0.33
2017-11-26T01:51:47.345Z,0.20
2017-11-26T01:54:15.160Z,0.20
2017-11-26T01:56:42.859Z,0.30
2017-11-26T01:59:10.575Z,0.60
2017-11-26T02:01:38.394Z,0.40
2017-11-26T02:04:06.120Z,0.27
2017-11-26T02:06:33.881Z,0.40
2017-11-26T02:09:01.743Z,0.30
2017-11-26T02:11:29.414Z,0.20
2017-11-26T02:13:57.212Z,0.30
2017-11-26T02:16:25.003Z,0.20
2017-11-26T02:18:52.728Z,0.20
2017-11-26T02:21:20.517Z,0.30
2017-11-26T02:23:48.303Z,0.30
2017-11-26T02:26:16.011Z,0.20
2017-11-26T02:28:43.758Z,0.20
2017-11-26T02:31:23.263Z,0.20
2017-11-26T02:34:02.646Z,0.40
2017-11-26T02:36:30.381Z,0.30
2017-11-26T02:38:58.196Z,0.30
2017-11-26T02:41:26.033Z,0.30
2017-11-26T02:43:53.768Z,0.30
2017-11-26T02:46:21.565Z,0.30
2017-11-26T02:48:49.425Z,0.20
2017-11-26T02:51:17.187Z,0.20
2017-11-26T02:53:44.981Z,0.40
2017-11-26T02:56:12.692Z,0.33
2017-11-26T02:58:40.488Z,0.20
2017-11-26T03:01:08.178Z,0.23
2017-11-26T03:03:35.939Z,0.20
2017-11-26T03:06:03.613Z,0.77
2017-11-26T03:08:31.282Z,0.20
2017-11-26T03:10:59.081Z,0.20
2017-11-26T03:13:26.872Z,0.30
2017-11-26T03:15:54.586Z,0.30
2017-11-26T03:18:22.305Z,0.30
2017-11-26T03:20:49.992Z,0.33
2017-11-26T03:23:17.883Z,0.20
2017-11-26T03:25:45.552Z,0.40
2017-11-26T03:28:13.327Z,0.30
2017-11-26T03:30:41.084Z,0.20
2017-11-26T03:33:08.887Z,0.30
2017-11-26T03:35:36.664Z,0.30
2017-11-26T03:38:04.430Z,0.47
2017-11-26T03:40:32.226Z,0.20
2017-11-26T03:43:00.049Z,0.40
2017-11-26T03:45:27.855Z,0.20
2017-11-26T03:47:55.602Z,0.33
2017-11-26T03:50:23.303Z,0.37
2017-11-26T03:52:51.108Z,0.20
2017-11-26T03:55:18.843Z,0.30
2017-11-26T03:57:46.555Z,0.37
2017-11-26T04:00:14.310Z,0.20
2017-11-26T04:02:42.004Z,0.20
2017-11-26T04:05:09.773Z,0.20
2017-11-26T04:07:37.545Z,0.30
2017-11-26T04:10:05.418Z,0.20
2017-11-26T04:12:33.138Z,0.30
2017-11-26T04:15:00.846Z,0.20
2017-11-26T04:17:28.608Z,0.23
2017-11-26T04:19:56.390Z,0.20
2017-11-26T04:22:24.093Z,0.30
2017-11-26T04:24:52.370Z,0.30
2017-11-26T04:27:20.122Z,0.30
2017-11-26T04:29:47.865Z,0.30
2017-11-26T04:32:15.646Z,0.20
2017-11-26T04:34:43.341Z,0.30
2017-11-26T04:37:11.124Z,0.30
2017-11-26T04:39:38.802Z,0.30
2017-11-26T04:42:06.535Z,0.30
2017-11-26T04:44:34.300Z,0.40
2017-11-26T04:47:02.068Z,0.50
2017-11-26T04:49:29.815Z,0.93
2017-11-26T04:51:57.546Z,0.40
2017-11-26T04:54:25.240Z,0.47
2017-11-26T04:56:52.988Z,0.90
2017-11-26T04:59:20.781Z,1.00
2017-11-26T05:01:48.580Z,0.70
2017-11-26T05:04:16.314Z,0.50
2017-11-26T05:06:44.156Z,0.40
2017-11-26T05:09:12.020Z,0.73
2017-11-26T05:11:39.698Z,1.17
2017-11-26T05:14:07.433Z,2.13
2017-11-26T05:16:35.110Z,2.00
2017-11-26T05:19:02.853Z,1.50
2017-11-26T05:21:30.673Z,1.50
2017-11-26T05:23:58.373Z,2.27
2017-11-26T05:26:26.241Z,1.30
2017-11-26T05:28:53.941Z,1.33
2017-11-26T05:31:22.207Z,0.80
2017-11-26T05:33:49.917Z,1.00
2017-11-26T05:36:17.600Z,0.80
2017-11-26T05:38:45.421Z,0.80
2017-11-26T05:41:13.130Z,0.53
2017-11-26T05:43:42.045Z,0.60
2017-11-26T05:46:09.851Z,0.50
2017-11-26T05:48:37.578Z,0.50
2017-11-26T05:51:05.299Z,0.63
2017-11-26T05:53:33.109Z,0.50
2017-11-26T05:56:00.858Z,0.70
2017-11-26T05:58:28.580Z,0.97
2017-11-26T06:00:56.316Z,0.77
2017-11-26T06:03:24.019Z,0.80
2017-11-26T06:05:52.307Z,1.43
2017-11-26T06:08:20.062Z,1.37
2017-11-26T06:10:47.851Z,1.03
2017-11-26T06:13:15.540Z,0.90
2017-11-26T06:15:43.295Z,0.70
2017-11-26T06:18:11.062Z,1.40
2017-11-26T06:20:38.754Z,0.77
2017-11-26T06:23:06.495Z,0.93
2017-11-26T06:25:34.228Z,0.80
2017-11-26T06:28:02.012Z,1.10
2017-11-26T06:30:29.761Z,0.67
2017-11-26T06:32:57.820Z,1.07
2017-11-26T06:35:25.630Z,1.00
2017-11-26T06:37:53.419Z,1.17
2017-11-26T06:40:21.374Z,1.00
2017-11-26T06:42:49.110Z,1.70
2017-11-26T06:45:16.839Z,2.43
2017-11-26T06:47:44.567Z,1.40
2017-11-26T06:50:13.352Z,0.73
2017-11-26T06:52:41.310Z,0.93
2017-11-26T06:55:09.104Z,0.93
2017-11-26T06:57:36.950Z,1.60
2017-11-26T07:00:04.738Z,1.50
2017-11-26T07:02:32.502Z,1.90
2017-11-26T07:05:00.233Z,1.10
2017-11-26T07:07:28.005Z,1.30
2017-11-26T07:09:55.739Z,1.50
2017-11-26T07:12:23.523Z,1.50
2017-11-26T07:14:51.208Z,1.60
2017-11-26T07:17:19.817Z,5.23
2017-11-26T07:19:47.596Z,4.83
2017-11-26T07:22:15.298Z,4.97
2017-11-26T07:24:43.046Z,3.33
2017-11-26T07:27:10.778Z,3.07
2017-11-26T07:29:38.484Z,2.37
2017-11-26T07:32:06.243Z,3.53
2017-11-26T07:34:34.440Z,3.57
2017-11-26T07:37:02.580Z,2.60
2017-11-26T07:39:32.398Z,3.60
2017-11-26T07:42:00.323Z,3.67
2017-11-26T07:44:29.341Z,3.50
2017-11-26T07:46:57.112Z,3.70
2017-11-26T07:49:24.898Z,4.93
2017-11-26T07:51:52.988Z,3.30
2017-11-26T07:54:22.822Z,2.87
2017-11-26T07:56:52.957Z,2.73
2017-11-26T07:59:22.001Z,3.50
2017-11-26T08:01:49.834Z,4.13
2017-11-26T08:04:17.649Z,7.03
2017-11-26T08:06:46.328Z,5.93
2017-11-26T08:09:14.601Z,4.93
2017-11-26T08:11:42.468Z,5.20
2017-11-26T08:14:13.165Z,4.33
2017-11-26T08:16:40.855Z,5.53
2017-11-26T08:19:08.577Z,3.40
2017-11-26T08:21:38.555Z,4.17
2017-11-26T08:24:06.385Z,5.40
2017-11-26T08:26:34.509Z,4.40
2017-11-26T08:29:02.353Z,4.30
2017-11-26T08:31:30.181Z,5.70
2017-11-26T08:33:57.926Z,7.10
2017-11-26T08:36:26.045Z,3.57
2017-11-26T08:38:53.879Z,4.63
2017-11-26T08:41:21.623Z,4.23
2017-11-26T08:43:49.375Z,3.87
2017-11-26T08:46:17.238Z,3.50
2017-11-26T08:48:45.058Z,3.57
2017-11-26T08:51:12.884Z,3.93
2017-11-26T08:53:41.724Z,3.80
2017-11-26T08:56:09.513Z,4.40
2017-11-26T08:58:37.361Z,5.10
2017-11-26T09:01:06.064Z,4.60
2017-11-26T09:03:35.431Z,6.27
2017-11-26T09:06:03.731Z,4.10
2017-11-26T09:08:48.127Z,5.33
2017-11-26T09:11:15.987Z,3.73
2017-11-26T09:13:43.828Z,3.67
2017-11-26T09:16:11.678Z,2.70
2017-11-26T09:18:39.550Z,3.17
2017-11-26T09:21:07.461Z,3.30
2017-11-26T09:23:35.271Z,3.87
2017-11-26T09:26:03.067Z,3.33
2017-11-26T09:28:30.840Z,3.00
2017-11-26T09:30:58.573Z,4.10
2017-11-26T09:33:26.431Z,3.70
2017-11-26T09:35:54.212Z,3.30
2017-11-26T09:38:22.351Z,2.97
2017-11-26T09:40:50.154Z,3.73
2017-11-26T09:43:18.277Z,2.80
2017-11-26T09:45:46.176Z,2.77
2017-11-26T09:48:13.963Z,2.63
2017-11-26T09:50:41.735Z,3.30
2017-11-26T09:53:09.499Z,2.97
2017-11-26T09:55:37.213Z,4.07
2017-11-26T09:58:04.937Z,4.33
2017-11-26T10:00:32.732Z,3.80
2017-11-26T10:03:00.484Z,3.37
2017-11-26T10:05:28.242Z,3.50
2017-11-26T10:07:55.959Z,3.90
2017-11-26T10:10:23.798Z,3.97
2017-11-26T10:12:51.612Z,3.30
2017-11-26T10:15:19.320Z,3.70
2017-11-26T10:17:47.109Z,3.77
2017-11-26T10:20:15.167Z,3.80
2017-11-26T10:22:43.042Z,4.20
2017-11-26T10:25:10.804Z,3.27
2017-11-26T10:27:38.615Z,3.13
2017-11-26T10:30:06.329Z,3.87
2017-11-26T10:32:34.090Z,3.40
2017-11-26T10:35:01.866Z,3.47
2017-11-26T10:37:29.600Z,2.83
2017-11-26T10:39:57.439Z,2.43
2017-11-26T10:42:25.173Z,3.90
2017-11-26T10:44:53.028Z,3.03
2017-11-26T10:47:20.931Z,4.80
2017-11-26T10:49:48.817Z,4.70
2017-11-26T10:52:16.689Z,5.60
2017-11-26T10:54:44.601Z,6.30
2017-11-26T10:57:12.499Z,7.17
2017-11-26T10:59:41.270Z,8.73
2017-11-26T11:02:09.093Z,9.40
2017-11-26T11:04:36.941Z,9.00
2017-11-26T11:07:04.747Z,7.00
2017-11-26T11:09:32.585Z,6.30
2017-11-26T11:12:00.377Z,6.33
2017-11-26T11:14:28.110Z,5.23
2017-11-26T11:16:55.848Z,6.80
2017-11-26T11:19:23.687Z,5.83
2017-11-26T11:21:51.472Z,6.33
2017-11-26T11:24:19.328Z,6.30
2017-11-26T11:26:47.081Z,3.60
2017-11-26T11:29:14.851Z,4.50
2017-11-26T11:31:42.601Z,2.80
2017-11-26T11:34:10.356Z,3.37
2017-11-26T11:36:38.058Z,1.47
2017-11-26T11:39:05.819Z,1.20
2017-11-26T11:41:33.597Z,1.93
2017-11-26T11:44:01.414Z,1.80
2017-11-26T11:46:29.172Z,1.80
2017-11-26T11:48:56.940Z,1.23
2017-11-26T11:51:24.869Z,0.80
2017-11-26T11:53:53.832Z,1.10
2017-11-26T11:56:21.690Z,0.80
2017-11-26T11:58:49.444Z,1.00
2017-11-26T12:01:17.347Z,0.83
2017-11-26T12:03:45.243Z,1.00
2017-11-26T12:06:13.072Z,0.60
2017-11-26T12:08:40.864Z,0.90
2017-11-26T12:11:08.852Z,0.90
2017-11-26T12:13:37.666Z,0.57
2017-11-26T12:18:39.577Z,1.87
2017-11-26T12:21:08.085Z,0.70
2017-11-26T12:23:37.006Z,1.17
2017-11-26T12:26:04.830Z,0.90
2017-11-26T12:28:32.639Z,0.73
2017-11-26T12:31:00.646Z,0.50
2017-11-26T12:33:28.420Z,0.70
2017-11-26T12:35:56.258Z,0.73
2017-11-26T12:38:24.158Z,0.60
2017-11-26T12:40:51.971Z,0.60
2017-11-26T12:43:20.204Z,0.50
2017-11-26T12:45:48.099Z,0.70
2017-11-26T12:48:15.973Z,0.43
2017-11-26T12:50:43.835Z,1.10
2017-11-26T12:53:11.867Z,1.10
2017-11-26T12:55:40.373Z,0.83
2017-11-26T12:58:08.201Z,0.70
2017-11-26T13:00:36.023Z,1.07
2017-11-26T13:03:03.787Z,0.90
2017-11-26T13:05:31.615Z,0.73
2017-11-26T13:07:59.419Z,1.20
2017-11-26T13:10:27.319Z,0.93
2017-11-26T13:12:55.157Z,0.63
2017-11-26T13:15:23.083Z,1.20
2017-11-26T13:17:50.963Z,2.23
2017-11-26T13:20:18.849Z,3.70
2017-11-26T13:22:46.780Z,1.40
2017-11-26T13:25:14.623Z,0.97
2017-11-26T13:27:42.501Z,1.10
2017-11-26T13:30:10.475Z,1.17
2017-11-26T13:32:38.541Z,0.80
2017-11-26T13:35:07.424Z,1.10
2017-11-26T13:37:36.558Z,0.87
2017-11-26T13:40:05.915Z,1.23
2017-11-26T13:42:33.748Z,1.50
2017-11-26T13:45:01.630Z,2.07
2017-11-26T13:47:29.510Z,2.43
2017-11-26T13:49:57.353Z,2.60
2017-11-26T13:52:25.220Z,1.17
2017-11-26T13:54:53.090Z,2.40
2017-11-26T13:57:20.869Z,1.70
2017-11-26T13:59:48.754Z,1.00
2017-11-26T14:02:16.772Z,1.40
2017-11-26T14:04:44.694Z,1.20
2017-11-26T14:07:12.640Z,2.00
2017-11-26T14:09:40.700Z,1.80
2017-11-26T14:12:08.535Z,1.03
2017-11-26T14:14:37.280Z,0.60
2017-11-26T14:17:05.206Z,1.03
2017-11-26T14:19:33.065Z,0.73
2017-11-26T14:22:00.819Z,0.80
2017-11-26T14:24:28.758Z,0.70
2017-11-26T14:26:56.588Z,0.70
2017-11-26T14:29:24.481Z,0.97
2017-11-26T14:31:52.453Z,0.77
2017-11-26T14:34:20.414Z,1.40
2017-11-26T14:36:48.258Z,1.10
2017-11-26T14:39:16.256Z,1.57
2017-11-26T14:41:44.153Z,1.00
2017-11-26T14:44:11.977Z,1.37
2017-11-26T14:46:39.817Z,0.80
2017-11-26T14:49:07.597Z,1.80
2017-11-26T14:51:36.469Z,2.40
2017-11-26T14:54:04.394Z,5.33
2017-11-26T14:56:32.538Z,1.70
2017-11-26T14:59:00.408Z,0.70
2017-11-26T15:01:28.307Z,1.43
2017-11-26T15:03:56.154Z,1.30
2017-11-26T15:06:24.037Z,1.57
2017-11-26T15:08:51.857Z,0.70
2017-11-26T15:11:19.661Z,1.30
2017-11-26T15:13:47.538Z,0.90
2017-11-26T15:16:15.548Z,2.80
2017-11-26T15:18:43.341Z,1.10
2017-11-26T15:21:11.163Z,1.37
2017-11-26T15:23:39.592Z,0.50
2017-11-26T15:26:07.379Z,0.50
2017-11-26T15:28:35.976Z,0.63
2017-11-26T15:31:03.856Z,0.47
2017-11-26T15:33:31.699Z,0.73
2017-11-26T15:35:59.505Z,0.60
2017-11-26T15:38:27.288Z,1.37
2017-11-26T15:40:55.107Z,2.30
2017-11-26T15:43:22.965Z,1.60
2017-11-26T15:45:50.832Z,0.77
2017-11-26T15:48:18.733Z,1.90
2017-11-26T15:50:46.541Z,2.53
2017-11-26T15:53:14.408Z,1.73
2017-11-26T15:55:42.282Z,1.53
2017-11-26T15:58:10.136Z,0.60
2017-11-26T16:00:38.040Z,1.20
2017-11-26T16:03:05.830Z,1.20
2017-11-26T16:05:33.642Z,0.63
2017-11-26T16:08:01.625Z,0.40
2017-11-26T16:10:29.427Z,0.90
2017-11-26T16:12:57.232Z,0.60
2017-11-26T16:15:25.014Z,0.60
2017-11-26T16:17:52.819Z,0.73
2017-11-26T16:20:20.607Z,0.80
2017-11-26T16:22:48.432Z,0.77
2017-11-26T16:25:16.220Z,0.50
2017-11-26T16:27:44.067Z,0.50
2017-11-26T16:30:11.892Z,0.50
2017-11-26T16:32:39.731Z,0.50
2017-11-26T16:35:07.573Z,0.70
2017-11-26T16:37:35.479Z,0.87
2017-11-26T16:40:03.251Z,0.40
2017-11-26T16:42:31.043Z,0.60
2017-11-26T16:44:58.991Z,0.40
2017-11-26T16:47:26.828Z,0.90
2017-11-26T16:49:54.630Z,0.50
2017-11-26T16:52:22.434Z,0.60
2017-11-26T16:54:50.403Z,0.60
2017-11-26T16:57:18.177Z,0.60
2017-11-26T16:59:46.739Z,0.67
2017-11-26T17:02:14.561Z,0.53
2017-11-26T17:04:42.394Z,0.33
2017-11-26T17:07:10.276Z,0.37
2017-11-26T17:09:38.175Z,0.40
2017-11-26T17:12:06.293Z,0.30
2017-11-26T17:14:34.192Z,0.37
2017-11-26T17:17:01.933Z,0.43
2017-11-26T17:19:29.786Z,0.70
2017-11-26T17:21:57.556Z,1.20
2017-11-26T17:24:25.309Z,0.50
2017-11-26T17:26:53.239Z,0.50
2017-11-26T17:29:21.840Z,0.70
2017-11-26T17:31:49.803Z,0.40
2017-11-26T17:34:17.570Z,2.23
2017-11-26T17:36:45.411Z,2.40
2017-11-26T17:39:13.217Z,1.00
2017-11-26T17:41:41.080Z,0.60
2017-11-26T17:44:09.026Z,0.67
2017-11-26T17:46:36.829Z,2.70
2017-11-26T17:49:04.860Z,1.20
2017-11-26T17:51:32.692Z,2.60
2017-11-26T17:54:00.544Z,2.57
2017-11-26T17:56:29.720Z,2.33
2017-11-26T17:58:57.497Z,1.67
2017-11-26T18:01:25.306Z,1.13
2017-11-26T18:03:53.655Z,1.20
2017-11-26T18:06:21.579Z,1.50
2017-11-26T18:08:50.155Z,1.37
2017-11-26T18:11:18.498Z,1.00
2017-11-26T18:13:46.490Z,1.10
2017-11-26T18:16:14.579Z,1.20
2017-11-26T18:18:42.309Z,1.13
2017-11-26T18:21:10.078Z,0.83
2017-11-26T18:23:37.895Z,0.87
2017-11-26T18:26:07.083Z,0.60
2017-11-26T18:28:34.908Z,0.60
2017-11-26T18:31:02.696Z,0.50
2017-11-26T18:33:30.558Z,0.90
2017-11-26T18:35:58.339Z,0.70
2017-11-26T18:38:26.126Z,0.70
2017-11-26T18:40:53.936Z,0.43
2017-11-26T18:43:21.648Z,0.87
2017-11-26T18:45:49.575Z,0.67
2017-11-26T18:48:17.336Z,0.67
2017-11-26T18:50:45.043Z,0.70
2017-11-26T18:53:12.795Z,0.70
2017-11-26T18:55:40.513Z,0.50
2017-11-26T18:58:08.334Z,1.07
2017-11-26T19:00:36.016Z,0.80
2017-11-26T19:03:03.804Z,0.40
2017-11-26T19:05:32.236Z,0.40
2017-11-26T19:07:59.982Z,0.60
2017-11-26T19:10:27.794Z,0.50
2017-11-26T19:12:55.575Z,0.80
2017-11-26T19:15:23.391Z,0.93
2017-11-26T19:17:51.678Z,0.80
2017-11-26T19:20:19.538Z,0.60
2017-11-26T19:22:47.901Z,0.70
2017-11-26T19:25:15.649Z,0.60
2017-11-26T19:27:43.877Z,0.90
2017-11-26T19:30:11.700Z,0.77
2017-11-26T19:32:39.445Z,0.47
2017-11-26T19:35:07.261Z,0.77
2017-11-26T19:37:35.058Z,0.80
2017-11-26T19:40:02.941Z,0.50
2017-11-26T19:42:30.821Z,1.20
2017-11-26T19:44:58.576Z,1.63
2017-11-26T19:47:26.516Z,0.97
2017-11-26T19:49:54.391Z,1.23
2017-11-26T19:52:22.149Z,0.80
2017-11-26T19:54:50.012Z,1.57
2017-11-26T19:57:17.978Z,1.07
2017-11-26T19:59:46.048Z,1.07
2017-11-26T20:02:14.177Z,1.00
2017-11-26T20:04:41.921Z,1.20
2017-11-26T20:07:10.347Z,1.10
2017-11-26T20:09:38.344Z,1.10
2017-11-26T20:12:06.246Z,1.60
2017-11-26T20:14:34.052Z,2.30
2017-11-26T20:17:01.877Z,3.00
2017-11-26T20:19:29.713Z,2.03
2017-11-26T20:21:57.618Z,2.10
2017-11-26T20:24:25.407Z,2.40
2017-11-26T20:26:53.392Z,1.70
2017-11-26T20:29:21.236Z,1.57
2017-11-26T20:31:49.255Z,1.20
2017-11-26T20:34:17.098Z,1.27
2017-11-26T20:36:44.931Z,1.80
2017-11-26T20:39:12.857Z,1.60
2017-11-26T20:41:41.855Z,1.53
2017-11-26T20:44:10.125Z,1.10
2017-11-26T20:46:38.089Z,0.63
2017-11-26T20:49:05.988Z,1.13
2017-11-26T20:51:36.122Z,1.67
2017-11-26T20:54:05.057Z,1.80
2017-11-26T20:56:32.865Z,1.63
2017-11-26T20:59:00.846Z,1.80
2017-11-26T21:01:28.609Z,1.90
2017-11-26T21:03:56.443Z,1.40
2017-11-26T21:06:24.219Z,1.93
2017-11-26T21:08:51.943Z,2.00
2017-11-26T21:11:21.885Z,2.07
2017-11-26T21:13:50.328Z,2.07
2017-11-26T21:16:18.207Z,1.37
2017-11-26T21:18:46.217Z,1.30
2017-11-26T21:21:15.745Z,1.53
2017-11-26T21:23:43.557Z,1.43
2017-11-26T21:26:11.356Z,0.93
2017-11-26T21:28:39.109Z,0.97
2017-11-26T21:31:06.868Z,0.90
2017-11-26T21:33:34.635Z,0.83
2017-11-26T21:36:02.463Z,0.50
2017-11-26T21:38:30.160Z,1.53
2017-11-26T21:40:57.898Z,0.50
2017-11-26T21:43:26.351Z,0.90
2017-11-26T21:45:54.120Z,1.23
2017-11-26T21:48:21.892Z,1.53
2017-11-26T21:50:49.613Z,0.57
2017-11-26T21:53:17.438Z,1.83
2017-11-26T21:55:45.146Z,0.90
2017-11-26T21:58:12.888Z,1.30
2017-11-26T22:00:40.720Z,0.60
2017-11-26T22:03:08.485Z,1.00
2017-11-26T22:05:36.227Z,1.00
2017-11-26T22:08:03.931Z,1.10
2017-11-26T22:10:31.682Z,1.20
2017-11-26T22:12:59.386Z,2.00
2017-11-26T22:15:27.212Z,2.13
2017-11-26T22:17:54.966Z,2.93
2017-11-26T22:20:22.748Z,2.70
2017-11-26T22:22:50.622Z,3.10
2017-11-26T22:25:18.336Z,2.47
2017-11-26T22:27:46.069Z,2.40
2017-11-26T22:30:13.808Z,1.70
2017-11-26T22:32:41.545Z,1.40
2017-11-26T22:35:09.310Z,1.20
2017-11-26T22:37:37.196Z,1.07
2017-11-26T22:40:04.969Z,0.80
2017-11-26T22:42:32.712Z,0.63
2017-11-26T22:45:01.625Z,1.13
2017-11-26T22:47:29.898Z,0.77
2017-11-26T22:49:57.666Z,0.90
2017-11-26T22:52:26.451Z,0.83
2017-11-26T22:54:54.143Z,1.00
2017-11-26T22:57:21.818Z,0.87
2017-11-26T22:59:49.582Z,1.10
2017-11-26T23:02:17.312Z,1.30
2017-11-26T23:04:45.131Z,1.07
2017-11-26T23:07:12.831Z,1.40
2017-11-26T23:09:40.601Z,2.20
2017-11-26T23:12:08.387Z,2.30
2017-11-26T23:14:36.160Z,1.80
2017-11-26T23:17:03.908Z,2.00
2017-11-26T23:19:31.644Z,1.93
2017-11-26T23:21:59.346Z,1.80
2017-11-26T23:24:27.447Z,2.00
2017-11-26T23:26:55.177Z,1.83
2017-11-26T23:29:22.854Z,2.47
2017-11-26T23:31:50.572Z,1.97
2017-11-26T23:34:18.351Z,1.73
2017-11-26T23:36:46.180Z,1.40
2017-11-26T23:39:13.897Z,1.60
2017-11-26T23:41:41.703Z,1.87
2017-11-26T23:44:09.405Z,1.73
2017-11-26T23:46:37.232Z,1.70
2017-11-26T23:49:05.100Z,1.77
2017-11-26T23:51:32.772Z,1.47
2017-11-26T23:54:00.612Z,1.80
2017-11-26T23:56:28.340Z,1.43
2017-11-26T23:58:56.155Z,1.40
